Terminal Aerodrome Forecast
Issued by NWS

Home | Current Version | Previous Version | Text Only | Print | Product List | Glossary On
Versions: 1 2 3 4 5 6 7 8 9 10 11 12 13 14 15 16 17 18 19 20 21 22 23 24 25 26 27 28 29 30 31 32 33 34 35 36
000
FTUS41 KPBZ 230558 CCA
TAFZZV
TAF COR
KZZV 230558Z 2306/2406 17010KT P6SM SCT050 WS020/21045KT
     FM231200 19010KT P6SM VCSH OVC045 WS020/20045KT
     FM231500 19010KT 4SM -RA OVC035 WS020/20045KT
     FM232000 21009KT 3SM -RA OVC025 WS020/20045KT
     FM232200 23008KT 3SM -RA OVC015 WS020/21045KT
     FM240100 25007KT 2SM -RASN OVC008=

USA.gov is the U.S. government's official web portal to all federal, state and local government web resources and services.